Time;durP1;ratioP1;P1;durP2;ratioP2;P2;SDS_P1;SDS_P2;PMS_P1;PMS_P2;Temp;Humidity;BMP_temperature;BMP_pressure;BME280_temperature;BME280_humidity;BME280_pressure;Samples;Min_cycle;Max_cycle;Signal;HPM_P1;HPM_P2
2022/11/08 00:03:50;;;;;;;4.27;1.83;;;12.80;99.90;;;;;;5073482;28;20336;-84
2022/11/08 00:14:29;;;;;;;6.07;2.37;;;12.70;99.90;;;;;;5055806;28;20300;-84
2022/11/08 00:16:56;;;;;;;5.97;2.00;;;12.70;99.90;;;;;;5054080;28;20205;-84
2022/11/08 00:19:24;;;;;;;5.57;2.30;;;12.80;99.90;;;;;;5054197;28;20217;-84
2022/11/08 00:21:51;;;;;;;7.83;2.20;;;12.90;99.90;;;;;;5053211;28;20203;-84
2022/11/08 00:24:18;;;;;;;4.13;1.93;;;12.80;99.90;;;;;;5054064;28;20225;-84
2022/11/08 00:26:45;;;;;;;5.43;2.50;;;12.70;99.90;;;;;;5054429;28;20207;-84
2022/11/08 00:29:12;;;;;;;6.57;2.17;;;12.80;99.90;;;;;;5053294;28;20199;-84
2022/11/08 00:31:38;;;;;;;3.80;2.10;;;12.80;99.90;;;;;;5053858;28;20266;-84
2022/11/08 00:34:05;;;;;;;7.17;2.20;;;12.70;99.90;;;;;;5068742;28;20198;-84
2022/11/08 00:36:33;;;;;;;9.17;2.97;;;12.70;99.90;;;;;;5074888;28;20206;-84
2022/11/08 00:39:00;;;;;;;5.87;2.30;;;12.90;99.90;;;;;;5072867;28;20572;-84
2022/11/08 00:41:27;;;;;;;8.43;2.40;;;12.90;99.90;;;;;;5074337;28;20599;-84
2022/11/08 00:43:53;;;;;;;8.33;2.57;;;12.90;99.90;;;;;;5057498;28;20226;-83
2022/11/08 00:46:20;;;;;;;4.67;2.13;;;12.80;99.90;;;;;;5072713;28;20205;-84
2022/11/08 00:48:47;;;;;;;5.30;2.20;;;12.80;99.90;;;;;;5073092;28;20293;-84
2022/11/08 00:51:14;;;;;;;5.43;2.30;;;12.80;99.90;;;;;;5073020;28;20234;-84
2022/11/08 00:53:42;;;;;;;6.93;2.57;;;12.90;99.90;;;;;;5071445;28;20576;-84
2022/11/08 00:56:12;;;;;;;4.50;2.03;;;13.00;99.90;;;;;;5072467;28;20212;-84
2022/11/08 00:58:40;;;;;;;7.00;2.30;;;12.80;99.90;;;;;;5063546;28;20205;-84
2022/11/08 01:01:12;;;;;;;6.53;2.30;;;12.80;99.90;;;;;;5053039;28;20703;-85
2022/11/08 01:03:39;;;;;;;6.73;2.13;;;12.70;99.90;;;;;;5053651;28;20610;-84
2022/11/08 01:06:08;;;;;;;2.87;1.80;;;12.70;99.90;;;;;;5052115;28;20202;-84
2022/11/08 01:08:35;;;;;;;7.97;2.17;;;12.50;99.90;;;;;;5053585;28;20215;-84
2022/11/08 01:11:06;;;;;;;7.97;2.83;;;12.60;99.90;;;;;;5052327;28;20234;-84
2022/11/08 01:13:33;;;;;;;7.47;2.17;;;12.50;99.90;;;;;;5053065;28;20198;-84
2022/11/08 01:16:06;;;;;;;6.00;2.30;;;12.40;99.90;;;;;;5053317;28;20206;-85
2022/11/08 01:18:33;;;;;;;3.90;2.30;;;12.40;99.90;;;;;;5059994;28;20198;-84
2022/11/08 01:21:02;;;;;;;6.77;2.87;;;12.30;99.90;;;;;;5059762;28;20223;-84
2022/11/08 01:23:28;;;;;;;3.73;1.80;;;12.20;99.90;;;;;;5065160;28;20203;-84
2022/11/08 01:25:55;;;;;;;9.03;2.40;;;12.20;99.90;;;;;;5072605;28;20584;-83
2022/11/08 01:28:23;;;;;;;7.10;2.10;;;12.30;99.90;;;;;;5073103;28;20217;-84
2022/11/08 01:30:50;;;;;;;9.03;2.60;;;12.20;99.90;;;;;;5067243;28;20686;-84
2022/11/08 01:33:17;;;;;;;5.50;2.20;;;12.20;99.90;;;;;;5060542;28;20195;-84
2022/11/08 01:35:45;;;;;;;3.47;2.10;;;12.20;99.90;;;;;;5052555;28;20206;-84
2022/11/08 01:38:12;;;;;;;7.67;2.13;;;12.30;99.90;;;;;;5052632;28;20633;-83
2022/11/08 01:40:43;;;;;;;4.57;2.67;;;12.30;99.90;;;;;;5051933;28;20219;-85
2022/11/08 01:43:34;;;;;;;4.50;1.97;;;12.20;99.90;;;;;;5052867;28;20211;-84
2022/11/08 01:46:33;;;;;;;4.67;2.83;;;12.20;99.90;;;;;;5047573;28;20892;-84
2022/11/08 01:49:22;;;;;;;4.37;2.40;;;12.00;99.90;;;;;;5052745;28;20221;-84
2022/11/08 01:51:55;;;;;;;7.63;2.80;;;12.00;99.90;;;;;;5050955;28;20202;-84
2022/11/08 01:54:27;;;;;;;4.53;2.27;;;11.90;99.90;;;;;;5054484;28;20193;-84
2022/11/08 01:56:56;;;;;;;5.40;2.50;;;11.90;99.90;;;;;;5072682;28;20662;-84
2022/11/08 01:59:24;;;;;;;9.33;2.40;;;11.90;99.90;;;;;;5071666;28;20204;-84
2022/11/08 02:01:52;;;;;;;7.50;2.80;;;11.80;99.90;;;;;;5072873;28;20216;-84
2022/11/08 02:04:19;;;;;;;9.10;2.67;;;11.90;99.90;;;;;;5071860;28;20218;-84
2022/11/08 02:06:46;;;;;;;8.10;2.67;;;11.80;99.90;;;;;;5058966;28;20206;-84
2022/11/08 02:09:15;;;;;;;9.03;2.40;;;11.80;99.90;;;;;;5051242;28;20209;-84
2022/11/08 02:11:42;;;;;;;10.63;2.80;;;11.60;99.90;;;;;;5069862;28;20221;-84
2022/11/08 02:14:10;;;;;;;5.43;2.27;;;11.60;99.90;;;;;;5070198;28;20228;-84
2022/11/08 02:16:38;;;;;;;5.70;2.07;;;11.70;99.90;;;;;;5072152;28;20293;-84
2022/11/08 02:19:10;;;;;;;6.40;2.60;;;11.60;99.90;;;;;;5072182;28;20209;-84
2022/11/08 02:21:42;;;;;;;7.93;2.73;;;11.50;99.90;;;;;;5070196;28;20232;-84
2022/11/08 02:24:12;;;;;;;6.20;2.17;;;11.60;99.90;;;;;;5071797;28;20222;-84
2022/11/08 02:26:40;;;;;;;8.73;2.47;;;11.50;99.90;;;;;;5072123;28;20206;-84
2022/11/08 02:29:24;;;;;;;5.70;2.77;;;11.40;99.90;;;;;;5069715;28;20206;-84
2022/11/08 02:31:51;;;;;;;5.93;2.27;;;11.60;99.90;;;;;;5057734;28;20195;-84
2022/11/08 02:34:18;;;;;;;5.73;2.50;;;11.30;99.90;;;;;;5050932;28;20195;-85
2022/11/08 02:36:47;;;;;;;7.17;3.07;;;11.30;99.90;;;;;;5051804;28;20217;-84
2022/11/08 02:39:16;;;;;;;9.70;2.40;;;11.30;99.90;;;;;;5050811;28;20305;-84
2022/11/08 02:41:42;;;;;;;7.67;2.80;;;11.30;99.90;;;;;;5050975;28;20227;-85
2022/11/08 02:44:09;;;;;;;4.87;2.50;;;11.30;99.90;;;;;;5050108;28;20227;-84
2022/11/08 02:46:36;;;;;;;5.43;2.50;;;11.30;99.90;;;;;;5051654;28;20205;-84
2022/11/08 02:49:03;;;;;;;7.97;2.43;;;11.40;99.90;;;;;;5063166;28;20788;-84
2022/11/08 02:51:29;;;;;;;3.93;2.40;;;11.30;99.90;;;;;;5070101;28;20251;-84
2022/11/08 02:53:56;;;;;;;5.77;2.47;;;11.30;99.90;;;;;;5057859;28;20195;-84
2022/11/08 02:56:24;;;;;;;3.53;2.30;;;11.20;99.90;;;;;;5067786;28;20203;-84
2022/11/08 02:58:51;;;;;;;7.67;2.60;;;11.20;99.90;;;;;;5059768;28;20203;-84
2022/11/08 03:01:18;;;;;;;8.43;2.57;;;11.10;99.90;;;;;;5050726;28;20691;-84
2022/11/08 03:03:45;;;;;;;6.80;2.50;;;11.10;99.90;;;;;;5052003;28;20207;-84
2022/11/08 03:06:12;;;;;;;8.30;3.13;;;11.20;99.90;;;;;;5050325;28;20233;-84
2022/11/08 03:08:39;;;;;;;6.07;2.17;;;11.20;99.90;;;;;;5051496;28;20585;-83
2022/11/08 03:11:06;;;;;;;6.87;2.20;;;11.20;99.90;;;;;;5050577;28;20218;-84
2022/11/08 03:13:34;;;;;;;5.67;2.40;;;11.30;99.90;;;;;;5066919;28;20573;-84
2022/11/08 03:16:02;;;;;;;5.43;3.07;;;11.20;99.90;;;;;;5064637;28;20190;-84
2022/11/08 03:18:29;;;;;;;6.30;2.40;;;11.20;99.90;;;;;;5067843;28;20663;-84
2022/11/08 03:20:56;;;;;;;9.27;2.63;;;11.10;99.90;;;;;;5064659;28;20221;-84
2022/11/08 03:23:23;;;;;;;7.23;2.40;;;11.20;99.90;;;;;;5071302;28;20203;-84
2022/11/08 03:25:50;;;;;;;7.10;3.23;;;11.30;99.90;;;;;;5062887;28;20226;-84
2022/11/08 03:28:16;;;;;;;5.37;2.20;;;11.30;99.90;;;;;;5073253;28;20206;-84
2022/11/08 03:30:44;;;;;;;4.87;2.13;;;11.30;99.90;;;;;;5072300;28;20594;-83
2022/11/08 03:33:11;;;;;;;4.83;2.23;;;11.30;99.90;;;;;;5057584;28;20195;-83
2022/11/08 03:35:38;;;;;;;10.10;3.77;;;11.20;99.90;;;;;;5072717;28;20721;-83
2022/11/08 03:38:05;;;;;;;6.30;2.30;;;11.20;99.90;;;;;;5072350;28;20194;-84
2022/11/08 03:40:32;;;;;;;7.10;2.50;;;11.30;99.90;;;;;;5073811;28;20248;-84
2022/11/08 03:42:58;;;;;;;8.47;2.20;;;11.20;99.90;;;;;;5074132;28;20255;-84
2022/11/08 03:45:25;;;;;;;7.57;2.50;;;11.20;99.90;;;;;;5074973;28;20234;-84
2022/11/08 03:47:54;;;;;;;3.60;2.30;;;11.20;99.90;;;;;;5075047;28;20643;-84
2022/11/08 03:50:20;;;;;;;6.13;2.83;;;11.30;99.90;;;;;;5074452;28;20903;-84
2022/11/08 03:52:49;;;;;;;6.27;2.80;;;11.20;99.90;;;;;;5067325;28;20202;-84
2022/11/08 03:55:17;;;;;;;7.57;2.27;;;11.10;99.90;;;;;;5066422;28;20286;-84
2022/11/08 03:57:46;;;;;;;5.23;2.13;;;11.20;99.90;;;;;;5054131;28;20563;-84
2022/11/08 04:00:15;;;;;;;5.33;2.20;;;11.20;99.90;;;;;;5055021;28;20227;-84
2022/11/08 04:02:42;;;;;;;3.57;2.30;;;11.10;99.90;;;;;;5058530;28;20781;-84
2022/11/08 04:05:12;;;;;;;5.87;2.23;;;11.30;99.90;;;;;;5070103;28;20207;-84
2022/11/08 04:07:39;;;;;;;5.43;2.70;;;11.30;99.90;;;;;;5059035;28;20289;-84
2022/11/08 04:10:07;;;;;;;4.43;2.37;;;11.20;99.90;;;;;;5072463;28;20210;-84
2022/11/08 04:15:21;;;;;;;6.80;2.70;;;11.10;99.90;;;;;;5060675;28;20583;-84
2022/11/08 04:23:34;;;;;;;9.13;2.87;;;10.80;99.90;;;;;;5077999;28;20205;-83
2022/11/08 04:26:03;;;;;;;4.83;2.20;;;10.90;99.90;;;;;;5074539;28;20218;-84
2022/11/08 04:28:32;;;;;;;8.30;2.50;;;11.00;99.90;;;;;;5076993;28;20236;-83
2022/11/08 04:31:01;;;;;;;4.33;2.30;;;10.90;99.90;;;;;;5076614;28;20237;-84
2022/11/08 04:33:28;;;;;;;12.93;6.03;;;10.80;99.90;;;;;;5077549;28;20738;-83
2022/11/08 04:36:01;;;;;;;8.13;2.83;;;10.80;99.90;;;;;;5076734;28;20571;-83
2022/11/08 04:38:29;;;;;;;8.23;2.70;;;10.80;99.90;;;;;;5076199;28;20183;-84
2022/11/08 04:41:00;;;;;;;7.27;2.57;;;10.90;99.90;;;;;;5075939;28;20238;-84
2022/11/08 04:43:26;;;;;;;6.40;2.73;;;10.80;99.90;;;;;;5076463;28;20206;-84
2022/11/08 04:45:58;;;;;;;10.30;2.67;;;10.60;99.90;;;;;;5076334;28;20230;-84
2022/11/08 04:48:24;;;;;;;7.47;2.57;;;10.70;99.90;;;;;;5075929;28;20202;-84
2022/11/08 04:50:51;;;;;;;6.23;2.30;;;10.70;99.90;;;;;;5075905;28;20225;-84
2022/11/08 04:53:19;;;;;;;10.53;3.20;;;10.70;99.90;;;;;;5076579;28;20202;-84
2022/11/08 04:55:46;;;;;;;4.77;2.43;;;10.60;99.90;;;;;;5076409;28;20199;-84
2022/11/08 04:58:13;;;;;;;5.13;2.47;;;10.60;99.90;;;;;;5076444;28;20198;-84
2022/11/08 05:00:40;;;;;;;7.13;3.10;;;10.60;99.90;;;;;;5075320;28;20250;-84
2022/11/08 05:03:07;;;;;;;4.90;2.40;;;10.80;99.90;;;;;;5075958;28;20293;-84
2022/11/08 05:05:34;;;;;;;6.87;2.63;;;10.60;99.90;;;;;;5076027;28;20222;-84
2022/11/08 05:08:00;;;;;;;7.47;3.00;;;10.60;99.90;;;;;;5075722;28;20220;-84
2022/11/08 05:10:29;;;;;;;6.57;2.40;;;10.40;99.90;;;;;;5075326;28;20222;-84
2022/11/08 05:12:57;;;;;;;6.67;2.57;;;10.50;99.90;;;;;;5074722;28;20216;-83
2022/11/08 05:15:23;;;;;;;6.07;2.27;;;10.50;99.90;;;;;;5075797;28;20244;-84
2022/11/08 05:17:51;;;;;;;5.77;2.60;;;10.50;99.90;;;;;;5075420;28;20234;-83
2022/11/08 05:25:48;;;;;;;4.53;2.20;;;10.40;99.90;;;;;;5075184;28;20229;-84
2022/11/08 05:28:15;;;;;;;5.43;2.40;;;10.20;99.90;;;;;;5075682;28;20685;-84
2022/11/08 05:30:42;;;;;;;7.17;2.40;;;10.10;99.90;;;;;;5075230;28;20225;-83
2022/11/08 05:33:08;;;;;;;5.93;2.40;;;10.00;99.90;;;;;;5075576;28;20206;-83
2022/11/08 05:35:36;;;;;;;7.17;3.00;;;9.90;99.90;;;;;;5074857;28;20309;-84
2022/11/08 05:38:02;;;;;;;6.97;2.83;;;9.90;99.90;;;;;;5075395;28;20205;-84
2022/11/08 05:40:29;;;;;;;6.70;2.77;;;10.10;99.90;;;;;;5074678;28;20654;-84
2022/11/08 05:42:57;;;;;;;5.13;3.33;;;10.00;99.90;;;;;;5074881;28;20208;-84
2022/11/08 05:45:24;;;;;;;6.23;2.80;;;9.90;99.90;;;;;;5074955;28;20226;-84
2022/11/08 05:47:51;;;;;;;9.13;3.07;;;10.30;99.90;;;;;;5075265;28;20204;-83
2022/11/08 05:50:18;;;;;;;6.03;2.80;;;10.40;99.90;;;;;;5074480;28;20749;-84
2022/11/08 05:52:44;;;;;;;12.13;4.10;;;10.40;99.90;;;;;;5074647;28;20203;-84
2022/11/08 05:55:11;;;;;;;5.67;2.70;;;10.40;99.90;;;;;;5074613;28;20195;-84
2022/11/08 05:57:42;;;;;;;5.80;2.63;;;10.40;99.90;;;;;;5074459;28;20297;-83
2022/11/08 06:00:12;;;;;;;4.40;2.57;;;10.30;99.90;;;;;;5074341;28;20233;-83
2022/11/08 06:02:39;;;;;;;11.13;4.20;;;10.40;99.90;;;;;;5075300;28;20210;-84
2022/11/08 06:05:07;;;;;;;7.40;3.10;;;10.30;99.90;;;;;;5074758;28;20218;-84
2022/11/08 06:07:34;;;;;;;7.53;3.00;;;10.40;99.90;;;;;;5074917;28;20217;-83
2022/11/08 06:10:00;;;;;;;6.93;3.30;;;10.50;99.90;;;;;;5073699;28;20230;-84
2022/11/08 06:12:27;;;;;;;6.47;3.30;;;10.60;99.90;;;;;;5071768;28;20551;-84
2022/11/08 06:14:54;;;;;;;7.87;3.07;;;10.70;99.90;;;;;;5072735;28;20805;-83
2022/11/08 06:17:22;;;;;;;8.77;3.00;;;10.70;99.90;;;;;;5072038;28;20672;-83
2022/11/08 06:19:49;;;;;;;8.37;3.00;;;10.70;99.90;;;;;;5073029;28;20233;-83
2022/11/08 06:22:16;;;;;;;6.73;3.00;;;10.60;99.90;;;;;;5074126;28;20579;-84
2022/11/08 06:24:43;;;;;;;5.63;2.73;;;10.70;99.90;;;;;;5073239;28;20889;-84
2022/11/08 06:27:09;;;;;;;6.80;3.73;;;10.60;99.90;;;;;;5074388;28;20588;-84
2022/11/08 06:29:36;;;;;;;7.17;2.80;;;10.60;99.90;;;;;;5072667;28;20277;-84
2022/11/08 06:32:03;;;;;;;6.07;3.10;;;10.70;99.90;;;;;;5074255;28;20574;-83
2022/11/08 06:34:31;;;;;;;6.50;3.23;;;10.90;99.90;;;;;;5074043;28;20676;-84
2022/11/08 06:36:59;;;;;;;8.03;3.67;;;10.90;99.90;;;;;;5074929;28;20198;-84
2022/11/08 06:39:26;;;;;;;10.57;3.80;;;10.90;99.90;;;;;;5074022;28;20209;-83
2022/11/08 06:41:52;;;;;;;7.17;3.00;;;10.90;99.90;;;;;;5074870;28;20669;-84
2022/11/08 06:44:19;;;;;;;6.40;2.97;;;10.90;99.90;;;;;;5075135;28;20209;-84
2022/11/08 06:46:46;;;;;;;7.70;3.10;;;10.90;99.90;;;;;;5074837;28;20226;-84
2022/11/08 06:49:13;;;;;;;5.37;3.10;;;10.80;99.90;;;;;;5074556;28;20206;-84
2022/11/08 06:51:41;;;;;;;6.87;3.63;;;10.80;99.90;;;;;;5072485;28;20222;-84
2022/11/08 06:54:08;;;;;;;8.80;3.00;;;10.90;99.90;;;;;;5073947;28;20736;-84
2022/11/08 06:56:34;;;;;;;7.43;2.93;;;10.90;99.90;;;;;;5074087;28;20195;-84
2022/11/08 06:59:02;;;;;;;6.90;3.13;;;11.00;99.90;;;;;;5072769;28;20206;-84
2022/11/08 07:01:28;;;;;;;5.17;2.87;;;11.10;99.90;;;;;;5073246;28;20222;-83
2022/11/08 07:03:55;;;;;;;7.20;3.10;;;11.10;99.90;;;;;;5072810;28;20662;-83
2022/11/08 07:06:22;;;;;;;6.63;2.83;;;11.20;99.90;;;;;;5074083;28;20577;-84
2022/11/08 07:08:51;;;;;;;4.57;2.77;;;11.30;99.90;;;;;;5073658;28;20206;-84
2022/11/08 07:11:18;;;;;;;5.50;2.80;;;11.30;99.90;;;;;;5071894;28;20694;-84
2022/11/08 07:13:46;;;;;;;4.90;2.90;;;11.30;99.90;;;;;;5068619;28;20667;-84
2022/11/08 07:16:13;;;;;;;6.27;2.67;;;11.30;99.90;;;;;;5065781;28;20723;-83
2022/11/08 07:18:40;;;;;;;3.93;2.60;;;11.40;99.90;;;;;;5072345;28;20209;-84
2022/11/08 07:21:07;;;;;;;6.67;2.53;;;11.40;99.90;;;;;;5071466;28;20213;-84
2022/11/08 07:23:34;;;;;;;5.07;2.50;;;11.40;99.90;;;;;;5073730;28;20198;-83
2022/11/08 07:26:04;;;;;;;3.23;2.50;;;11.60;99.90;;;;;;5074871;28;20226;-84
2022/11/08 07:28:31;;;;;;;9.50;3.50;;;11.70;99.90;;;;;;5072284;28;20292;-83
2022/11/08 07:31:00;;;;;;;5.63;2.80;;;11.70;99.90;;;;;;5072250;28;20222;-84
2022/11/08 07:33:27;;;;;;;7.07;2.50;;;11.80;99.90;;;;;;5073193;28;20562;-83
2022/11/08 07:35:55;;;;;;;8.37;3.00;;;12.00;99.90;;;;;;5076784;28;20228;-83
2022/11/08 07:38:22;;;;;;;4.83;2.77;;;11.90;99.90;;;;;;5077810;28;20217;-83
2022/11/08 07:40:50;;;;;;;8.77;2.97;;;11.90;99.90;;;;;;5077397;28;20218;-84
2022/11/08 07:43:18;;;;;;;6.63;2.80;;;12.00;99.90;;;;;;5077627;28;20205;-84
2022/11/08 07:45:45;;;;;;;8.30;2.83;;;12.10;99.90;;;;;;5077598;28;20244;-83
2022/11/08 07:48:13;;;;;;;3.83;2.37;;;12.10;99.90;;;;;;5078551;28;20206;-84
2022/11/08 07:50:40;;;;;;;5.57;2.47;;;12.10;99.90;;;;;;5079012;28;20245;-83
2022/11/08 07:53:07;;;;;;;5.67;2.00;;;12.10;99.90;;;;;;5070329;28;20287;-84
2022/11/08 07:55:36;;;;;;;4.47;2.00;;;12.00;99.90;;;;;;5077015;28;20710;-83
2022/11/08 07:58:03;;;;;;;5.53;2.30;;;12.00;99.90;;;;;;5076936;28;20682;-84
2022/11/08 08:00:35;;;;;;;6.23;2.50;;;12.00;99.90;;;;;;5076453;28;20237;-83
2022/11/08 08:03:02;;;;;;;6.87;2.20;;;12.00;99.90;;;;;;5077275;28;20274;-83
2022/11/08 08:05:33;;;;;;;5.67;2.50;;;11.90;99.90;;;;;;5076613;28;20229;-83
2022/11/08 08:08:00;;;;;;;8.07;3.20;;;11.90;99.90;;;;;;5076956;28;20206;-84
2022/11/08 08:10:28;;;;;;;4.50;2.00;;;11.90;99.90;;;;;;5076658;28;20230;-84
2022/11/08 08:12:55;;;;;;;10.20;2.77;;;11.90;99.90;;;;;;5076016;28;20198;-84
2022/11/08 08:15:23;;;;;;;4.97;2.67;;;12.00;99.90;;;;;;5075166;28;20209;-84
2022/11/08 08:17:51;;;;;;;5.10;2.53;;;12.00;99.90;;;;;;5076224;28;20202;-84
2022/11/08 08:20:18;;;;;;;8.23;3.10;;;11.90;99.90;;;;;;5074285;28;20233;-84
2022/11/08 08:22:46;;;;;;;8.27;2.67;;;12.10;99.90;;;;;;5076002;28;20256;-84
2022/11/08 08:25:13;;;;;;;5.40;2.70;;;12.40;99.90;;;;;;5076848;28;20218;-84
2022/11/08 08:27:40;;;;;;;5.03;2.40;;;12.70;99.90;;;;;;5074839;28;20233;-84
2022/11/08 08:30:08;;;;;;;3.63;2.07;;;12.60;99.90;;;;;;5075441;28;20317;-84
2022/11/08 08:32:35;;;;;;;7.37;2.03;;;12.60;99.90;;;;;;5076353;28;20213;-84
2022/11/08 08:35:04;;;;;;;8.73;2.57;;;12.60;99.90;;;;;;5076682;28;20212;-84
2022/11/08 08:37:31;;;;;;;4.33;1.90;;;12.60;99.90;;;;;;5076386;28;20289;-84
2022/11/08 08:39:57;;;;;;;6.23;2.30;;;12.60;99.90;;;;;;5075812;28;20226;-83
2022/11/08 08:42:24;;;;;;;4.00;2.10;;;12.60;99.90;;;;;;5075944;28;20228;-84
2022/11/08 08:44:51;;;;;;;6.90;2.30;;;12.60;99.90;;;;;;5076136;28;20198;-83
2022/11/08 08:47:18;;;;;;;3.60;2.00;;;12.70;99.90;;;;;;5076059;28;20735;-83
2022/11/08 08:49:44;;;;;;;5.63;2.63;;;12.80;99.90;;;;;;5076041;28;20232;-84
2022/11/08 08:52:13;;;;;;;7.60;2.80;;;13.00;99.90;;;;;;5075951;28;20202;-83
2022/11/08 08:54:39;;;;;;;8.23;2.40;;;13.10;99.90;;;;;;5071648;28;20211;-84
2022/11/08 08:57:06;;;;;;;6.90;2.87;;;13.40;99.90;;;;;;5075799;28;20193;-84
2022/11/08 08:59:33;;;;;;;5.00;2.50;;;13.50;99.90;;;;;;5075878;28;20202;-83
2022/11/08 09:02:00;;;;;;;6.13;2.43;;;13.30;99.90;;;;;;5074139;28;20209;-84
2022/11/08 09:04:27;;;;;;;5.37;2.20;;;13.20;99.90;;;;;;5076062;28;20210;-84
2022/11/08 09:06:54;;;;;;;6.07;2.40;;;13.20;99.90;;;;;;5076005;28;20228;-84
2022/11/08 09:09:22;;;;;;;3.90;2.40;;;13.30;99.90;;;;;;5075172;28;20212;-84
2022/11/08 09:11:49;;;;;;;2.10;1.80;;;13.30;99.90;;;;;;5072235;28;20205;-84
2022/11/08 09:14:16;;;;;;;5.33;2.13;;;13.40;99.90;;;;;;5069084;28;20210;-84
2022/11/08 09:16:43;;;;;;;5.87;2.20;;;13.70;25.20;;;;;;5074128;28;20198;-83
2022/11/08 09:19:11;;;;;;;4.87;1.83;;;13.70;1.00;;;;;;5074754;28;20299;-83
2022/11/08 09:21:44;;;;;;;5.57;2.00;;;13.90;1.00;;;;;;5074480;28;20575;-84
2022/11/08 09:24:11;;;;;;;3.20;1.80;;;14.00;1.00;;;;;;5075494;28;20213;-84
2022/11/08 09:26:39;;;;;;;4.30;1.77;;;14.00;1.00;;;;;;5074284;28;20221;-84
2022/11/08 09:29:06;;;;;;;4.57;1.90;;;14.10;1.00;;;;;;5074570;28;20208;-83
2022/11/08 09:31:33;;;;;;;3.63;1.80;;;14.20;99.90;;;;;;5074710;28;20222;-84
2022/11/08 09:34:00;;;;;;;3.90;1.50;;;14.30;99.90;;;;;;5075362;28;20206;-84
2022/11/08 09:36:26;;;;;;;3.00;1.53;;;14.50;99.90;;;;;;5074168;28;20224;-84
2022/11/08 09:38:53;;;;;;;2.97;1.50;;;14.50;51.00;;;;;;5074960;28;20281;-83
2022/11/08 09:41:46;;;;;;;3.07;1.40;;;14.60;33.80;;;;;;5074024;28;20682;-84
2022/11/08 09:44:25;;;;;;;1.52;0.90;;;14.40;1.00;;;;;;5074794;28;20202;-84
2022/11/08 09:46:55;;;;;;;2.57;1.57;;;14.50;99.90;;;;;;5074315;28;20226;-84
2022/11/08 09:49:29;;;;;;;4.17;1.63;;;14.50;1.00;;;;;;5075503;28;20569;-84
2022/11/08 09:51:57;;;;;;;4.30;1.83;;;14.60;99.90;;;;;;5074939;28;20195;-85
2022/11/08 09:54:27;;;;;;;3.23;1.47;;;14.50;1.00;;;;;;5076111;28;20221;-84
2022/11/08 09:56:55;;;;;;;1.87;1.37;;;14.60;1.00;;;;;;5075143;28;20220;-84
2022/11/08 09:59:36;;;;;;;1.65;1.00;;;15.00;1.00;;;;;;5072927;28;20617;-84
2022/11/08 10:02:03;;;;;;;2.38;1.33;;;15.10;1.00;;;;;;5074547;28;20189;-83
2022/11/08 10:04:32;;;;;;;3.00;1.20;;;15.10;1.00;;;;;;5075440;28;20209;-84
2022/11/08 10:07:10;;;;;;;4.40;1.20;;;15.20;99.90;;;;;;5074550;28;20218;-84
2022/11/08 10:10:05;;;;;;;1.60;1.30;;;15.50;99.90;;;;;;5073495;28;20202;-84
2022/11/08 10:12:43;;;;;;;3.53;1.65;;;15.90;96.90;;;;;;5074603;28;20186;-84
2022/11/08 10:15:22;;;;;;;2.30;1.30;;;16.30;1.00;;;;;;5072624;28;20325;-84
2022/11/08 10:18:10;;;;;;;5.30;1.58;;;16.20;1.00;;;;;;5075029;28;20187;-84
2022/11/08 10:20:47;;;;;;;5.38;1.35;;;16.50;1.00;;;;;;5074324;28;20228;-84
2022/11/08 10:23:21;;;;;;;1.88;1.08;;;16.70;99.90;;;;;;5069062;28;20216;-84
2022/11/08 10:25:52;;;;;;;2.58;1.25;;;16.70;99.90;;;;;;5073170;28;20367;-84
2022/11/08 10:28:26;;;;;;;1.23;0.82;;;16.90;99.90;;;;;;5073727;28;20236;-84
2022/11/08 10:30:55;;;;;;;1.95;1.00;;;16.80;93.50;;;;;;5074143;28;20222;-84
2022/11/08 10:33:28;;;;;;;1.85;1.17;;;16.90;48.40;;;;;;5073587;28;20206;-84
2022/11/08 10:35:57;;;;;;;2.83;1.25;;;16.80;27.80;;;;;;5073359;28;20289;-83
2022/11/08 10:38:29;;;;;;;1.63;1.15;;;17.00;1.00;;;;;;5074110;28;20206;-84
2022/11/08 10:41:00;;;;;;;5.55;2.03;;;17.10;1.00;;;;;;5074071;28;20229;-84
2022/11/08 10:43:36;;;;;;;1.80;1.13;;;17.20;1.00;;;;;;5076453;28;20293;-84
2022/11/08 10:46:04;;;;;;;2.33;1.17;;;17.10;1.00;;;;;;5075246;28;20205;-85
2022/11/08 10:48:34;;;;;;;2.60;1.40;;;17.10;1.00;;;;;;5075633;28;20210;-84
2022/11/08 10:51:00;;;;;;;4.13;1.40;;;17.00;1.00;;;;;;5073641;28;20218;-84
2022/11/08 10:53:30;;;;;;;3.05;1.30;;;16.90;1.00;;;;;;5074632;28;20206;-84
2022/11/08 10:56:00;;;;;;;2.97;1.38;;;17.10;1.00;;;;;;5074111;28;20210;-84
2022/11/08 10:58:31;;;;;;;3.40;1.05;;;17.20;1.00;;;;;;5073363;28;20208;-83
2022/11/08 11:01:03;;;;;;;4.63;1.50;;;17.30;1.00;;;;;;5074420;28;20234;-83
2022/11/08 11:03:30;;;;;;;6.03;1.42;;;17.30;1.00;;;;;;5073630;28;20198;-84
2022/11/08 11:06:02;;;;;;;3.13;1.42;;;17.30;1.00;;;;;;5074128;28;20228;-84
2022/11/08 11:08:29;;;;;;;4.57;1.33;;;17.00;1.00;;;;;;5073341;28;20605;-83
2022/11/08 11:11:11;;;;;;;3.33;1.33;;;17.30;1.00;;;;;;5076134;28;20222;-84
2022/11/08 11:13:39;;;;;;;1.17;1.00;;;17.50;1.00;;;;;;5078434;28;20229;-84
2022/11/08 11:16:14;;;;;;;0.90;0.90;;;17.40;1.00;;;;;;5078974;28;20209;-84
2022/11/08 11:18:49;;;;;;;3.80;1.50;;;17.60;1.00;;;;;;5081515;28;20205;-83
2022/11/08 11:21:17;;;;;;;5.05;1.42;;;17.50;1.00;;;;;;5078225;28;20229;-84
2022/11/08 11:23:46;;;;;;;1.58;1.05;;;17.50;1.00;;;;;;5078239;28;20583;-84
2022/11/08 11:26:27;;;;;;;3.58;1.30;;;17.40;1.00;;;;;;5078278;28;20309;-84
2022/11/08 11:29:18;;;;;;;2.35;1.45;;;17.50;1.00;;;;;;5078288;28;20611;-84
2022/11/08 11:31:46;;;;;;;2.88;1.10;;;17.70;1.00;;;;;;5078352;28;20210;-84
2022/11/08 11:34:47;;;;;;;2.78;1.45;;;17.70;1.00;;;;;;5077707;28;20214;-84
2022/11/08 11:37:27;;;;;;;5.75;1.45;;;17.80;1.00;;;;;;5016169;28;20287;-84
2022/11/08 11:40:02;;;;;;;2.92;1.15;;;17.90;1.00;;;;;;5070494;28;20232;-84
2022/11/08 11:42:33;;;;;;;2.08;1.10;;;17.80;1.00;;;;;;5078274;28;20186;-83
2022/11/08 11:45:09;;;;;;;2.22;1.20;;;18.00;1.00;;;;;;5077675;28;20692;-84
2022/11/08 11:47:43;;;;;;;2.65;1.48;;;18.00;1.00;;;;;;5078392;28;20226;-84
2022/11/08 11:50:21;;;;;;;4.53;1.15;;;18.10;1.00;;;;;;5078034;28;20234;-84
2022/11/08 11:52:48;;;;;;;1.48;1.00;;;18.40;1.00;;;;;;5078089;28;20643;-84
2022/11/08 11:55:16;;;;;;;2.35;1.35;;;18.20;1.00;;;;;;5077906;28;20297;-84
2022/11/08 11:58:00;;;;;;;1.95;1.23;;;18.20;1.00;;;;;;5077591;28;20260;-84
2022/11/08 12:00:28;;;;;;;2.80;1.45;;;18.50;1.00;;;;;;5078129;28;20709;-83
2022/11/08 12:03:21;;;;;;;3.22;1.50;;;18.80;1.00;;;;;;5077590;28;20276;-84
2022/11/08 12:06:21;;;;;;;3.95;1.27;;;18.90;1.00;;;;;;5077783;28;20576;-84
2022/11/08 12:09:07;;;;;;;1.50;1.10;;;18.50;99.90;;;;;;5077478;28;20564;-84
2022/11/08 12:11:49;;;;;;;1.83;1.30;;;17.90;1.00;;;;;;5077257;28;20222;-84
2022/11/08 12:14:41;;;;;;;3.17;1.30;;;17.80;1.00;;;;;;5077355;28;20212;-84
2022/11/08 12:17:28;;;;;;;2.65;1.23;;;17.70;1.00;;;;;;5075259;28;20208;-84
2022/11/08 12:20:07;;;;;;;1.83;1.25;;;17.70;99.90;;;;;;5077434;28;20222;-84
2022/11/08 12:22:46;;;;;;;1.27;1.00;;;17.60;99.90;;;;;;5077153;28;20574;-84
2022/11/08 12:25:20;;;;;;;3.10;1.30;;;18.00;99.90;;;;;;5072668;28;20607;-84
2022/11/08 12:27:51;;;;;;;1.92;1.10;;;18.10;99.90;;;;;;5077474;28;20226;-84
2022/11/08 12:30:21;;;;;;;3.08;1.23;;;18.40;99.90;;;;;;5077352;28;20215;-84
2022/11/08 12:33:03;;;;;;;4.45;1.70;;;18.50;99.90;;;;;;5077756;28;20198;-84
2022/11/08 12:35:38;;;;;;;1.35;1.20;;;18.30;99.90;;;;;;5077210;28;20202;-84
2022/11/08 12:38:16;;;;;;;1.67;1.17;;;18.40;99.90;;;;;;5076936;28;20704;-84
2022/11/08 12:40:48;;;;;;;3.78;1.20;;;18.50;99.90;;;;;;5076902;28;20218;-84
2022/11/08 12:43:34;;;;;;;3.08;1.48;;;18.40;99.90;;;;;;5076906;28;20198;-83
2022/11/08 12:46:11;;;;;;;3.78;1.30;;;18.70;99.90;;;;;;5076260;28;20241;-84
2022/11/08 12:49:04;;;;;;;1.75;1.08;;;18.60;99.90;;;;;;5077460;28;20301;-84
2022/11/08 12:51:41;;;;;;;1.10;1.00;;;18.90;99.90;;;;;;5076510;28;20233;-85
2022/11/08 12:54:20;;;;;;;2.75;1.35;;;19.00;99.90;;;;;;5078043;28;20198;-84
2022/11/08 12:56:50;;;;;;;2.47;1.00;;;19.10;99.90;;;;;;5077482;28;20550;-83
2022/11/08 12:59:22;;;;;;;1.75;1.27;;;19.20;99.90;;;;;;5077295;28;20202;-84
2022/11/08 13:01:50;;;;;;;2.42;1.13;;;19.20;99.90;;;;;;5078092;28;20182;-84
2022/11/08 13:04:38;;;;;;;3.22;1.63;;;19.20;99.90;;;;;;5077875;28;20205;-84
2022/11/08 13:07:15;;;;;;;2.05;1.38;;;19.20;99.90;;;;;;5077584;28;20216;-84
2022/11/08 13:09:47;;;;;;;2.58;1.08;;;18.80;99.90;;;;;;5076281;28;20230;-84
2022/11/08 13:12:25;;;;;;;2.38;1.30;;;18.60;99.90;;;;;;5072420;28;20183;-84
2022/11/08 13:14:52;;;;;;;1.95;1.00;;;18.50;99.90;;;;;;5056895;28;20215;-84
2022/11/08 13:17:24;;;;;;;2.55;1.40;;;18.20;99.90;;;;;;5056966;28;20210;-84
2022/11/08 13:19:59;;;;;;;2.28;1.23;;;18.10;99.90;;;;;;5056943;28;20269;-83
2022/11/08 13:22:44;;;;;;;5.38;2.00;;;18.00;99.90;;;;;;5056611;28;20214;-83
2022/11/08 13:25:33;;;;;;;8.05;4.65;;;17.70;99.90;;;;;;5056963;28;20293;-83
2022/11/08 13:27:59;;;;;;;2.15;1.60;;;17.70;99.90;;;;;;5056137;28;20234;-85